Time;durP1;ratioP1;P1;durP2;ratioP2;P2;SDS_P1;SDS_P2;PMS_P1;PMS_P2;Temp;Humidity;BMP_temperature;BMP_pressure;BME280_temperature;BME280_humidity;BME280_pressure;Samples;Min_cycle;Max_cycle;Signal;HPM_P1;HPM_P2
2023/08/16 18:04:44;;;;;;;4.60;1.02;;;22.30;99.90;;;;;;5064651;28;20805;-69
2023/08/16 18:07:10;;;;;;;4.73;1.20;;;21.90;99.90;;;;;;5056951;28;21182;-69
2023/08/16 18:09:35;;;;;;;5.55;0.88;;;21.80;99.90;;;;;;5048263;28;20421;-73
2023/08/16 18:12:01;;;;;;;6.57;1.00;;;21.70;99.90;;;;;;5054062;28;20511;-73
2023/08/16 18:14:27;;;;;;;6.70;1.13;;;21.60;99.90;;;;;;5049756;28;21021;-73
2023/08/16 18:16:52;;;;;;;5.30;1.10;;;21.60;1.00;;;;;;5044147;28;20406;-74
2023/08/16 18:19:18;;;;;;;7.30;0.93;;;21.60;1.00;;;;;;5047359;28;20464;-71
2023/08/16 18:21:43;;;;;;;4.63;0.90;;;21.50;1.00;;;;;;5046297;28;20440;-69
2023/08/16 18:24:09;;;;;;;8.70;1.40;;;21.40;1.00;;;;;;5051790;28;20514;-71
2023/08/16 18:26:35;;;;;;;4.70;0.63;;;21.40;1.00;;;;;;5061745;28;20429;-73
2023/08/16 18:29:00;;;;;;;5.97;1.03;;;21.30;1.00;;;;;;5045190;28;20406;-73
2023/08/16 18:31:26;;;;;;;8.40;1.03;;;21.20;1.00;;;;;;5044352;28;20418;-73
2023/08/16 18:33:51;;;;;;;5.80;0.95;;;21.10;1.00;;;;;;5044757;28;20433;-73
2023/08/16 18:36:18;;;;;;;4.55;0.65;;;21.00;1.00;;;;;;5041800;28;20433;-74
2023/08/16 18:38:44;;;;;;;5.18;1.08;;;21.00;1.00;;;;;;5048948;28;20410;-74
2023/08/16 18:41:09;;;;;;;10.20;0.95;;;20.90;1.00;;;;;;5042271;28;20491;-74
2023/08/16 18:43:35;;;;;;;4.15;0.70;;;20.90;1.00;;;;;;5047874;28;20512;-74
2023/08/16 18:46:01;;;;;;;4.63;0.50;;;20.90;1.00;;;;;;5043104;28;20406;-73
2023/08/16 18:48:27;;;;;;;4.05;0.80;;;20.80;12.10;;;;;;5042280;28;20436;-73
2023/08/16 18:50:53;;;;;;;3.63;0.82;;;20.80;23.50;;;;;;5043271;28;20415;-73
2023/08/16 18:53:18;;;;;;;4.40;0.70;;;20.70;37.60;;;;;;5045049;28;20433;-74
2023/08/16 18:55:45;;;;;;;4.47;0.70;;;20.70;26.20;;;;;;5046298;28;20453;-74
2023/08/16 18:58:11;;;;;;;6.20;1.20;;;20.60;46.70;;;;;;5023121;28;20940;-74
2023/08/16 19:00:41;;;;;;;5.30;0.77;;;20.60;77.50;;;;;;5021820;28;20419;-73
2023/08/16 19:03:07;;;;;;;4.07;0.77;;;20.60;95.00;;;;;;5016428;28;20498;-74
2023/08/16 19:05:33;;;;;;;3.80;0.70;;;20.60;99.90;;;;;;5022559;28;20423;-73
2023/08/16 19:07:59;;;;;;;4.15;0.90;;;20.50;99.90;;;;;;5021887;28;20443;-73
2023/08/16 19:10:24;;;;;;;3.80;1.00;;;20.50;99.90;;;;;;5046556;28;20400;-72
2023/08/16 19:12:50;;;;;;;3.65;0.90;;;20.50;99.90;;;;;;5038991;28;20971;-72
2023/08/16 19:15:16;;;;;;;4.83;0.80;;;20.40;99.90;;;;;;5018145;28;20407;-72
2023/08/16 19:17:43;;;;;;;3.83;0.70;;;20.40;99.90;;;;;;5015327;28;20420;-73
2023/08/16 19:20:09;;;;;;;4.00;0.75;;;20.30;99.90;;;;;;5009011;28;20516;-73
2023/08/16 19:22:34;;;;;;;3.03;0.60;;;20.30;99.90;;;;;;5004833;28;20471;-73
2023/08/16 19:25:00;;;;;;;3.53;0.70;;;20.20;99.90;;;;;;5010265;28;20433;-73
2023/08/16 19:27:26;;;;;;;4.18;0.82;;;20.20;99.90;;;;;;5013376;28;20444;-75
2023/08/16 19:29:52;;;;;;;5.20;0.80;;;20.10;99.90;;;;;;5017903;28;20492;-72
2023/08/16 19:32:18;;;;;;;4.03;0.70;;;20.10;99.90;;;;;;5016762;28;20569;-73
2023/08/16 19:34:44;;;;;;;4.40;0.60;;;20.00;99.90;;;;;;5010527;28;20428;-72
2023/08/16 19:37:09;;;;;;;3.97;0.63;;;20.00;99.90;;;;;;5010291;28;20420;-73
2023/08/16 19:39:35;;;;;;;3.53;0.63;;;20.00;99.90;;;;;;5010748;28;20409;-74
2023/08/16 19:42:01;;;;;;;3.97;0.70;;;19.90;99.90;;;;;;5010504;28;20405;-73
2023/08/16 19:44:27;;;;;;;4.97;1.00;;;19.80;99.90;;;;;;5011384;28;20425;-73
2023/08/16 19:46:52;;;;;;;4.50;0.60;;;19.80;99.90;;;;;;5008993;28;20502;-73
2023/08/16 19:49:18;;;;;;;3.30;0.68;;;19.80;99.90;;;;;;5010942;28;20537;-73
2023/08/16 19:51:44;;;;;;;3.87;0.80;;;19.70;99.90;;;;;;5009603;28;20420;-73
2023/08/16 19:54:09;;;;;;;3.60;0.60;;;19.70;99.90;;;;;;5010320;28;20535;-73
2023/08/16 19:56:35;;;;;;;3.77;0.60;;;19.60;1.00;;;;;;5009352;28;20417;-73
2023/08/16 19:59:01;;;;;;;4.07;0.60;;;19.60;1.00;;;;;;5009372;28;20918;-73
2023/08/16 20:01:26;;;;;;;3.72;0.70;;;19.60;1.00;;;;;;5016314;28;20782;-71
2023/08/16 20:03:52;;;;;;;3.43;0.80;;;19.50;1.00;;;;;;5021442;28;20549;-71
2023/08/16 20:06:17;;;;;;;3.70;0.60;;;19.50;1.00;;;;;;5014130;28;20426;-71
2023/08/16 20:08:43;;;;;;;2.20;0.60;;;19.40;1.00;;;;;;5034431;28;20890;-71
2023/08/16 20:11:09;;;;;;;4.10;0.70;;;19.30;52.10;;;;;;5028775;28;20428;-71
2023/08/16 20:13:35;;;;;;;3.77;0.60;;;19.30;99.90;;;;;;5029768;28;20925;-71
2023/08/16 20:16:02;;;;;;;4.72;0.80;;;19.20;99.90;;;;;;5030926;28;20457;-71
2023/08/16 20:18:28;;;;;;;4.82;0.90;;;19.20;99.90;;;;;;5015127;28;20411;-70
2023/08/16 20:20:53;;;;;;;5.03;0.90;;;19.10;99.90;;;;;;5030024;28;20415;-71
2023/08/16 20:23:19;;;;;;;4.90;0.80;;;19.10;99.90;;;;;;5028257;28;20960;-71
2023/08/16 20:25:45;;;;;;;3.90;0.70;;;19.10;57.20;;;;;;5010575;28;20545;-71
2023/08/16 20:28:10;;;;;;;4.32;0.90;;;19.10;99.90;;;;;;5027439;28;20402;-71
2023/08/16 20:30:37;;;;;;;5.97;1.00;;;19.10;99.90;;;;;;5027717;28;20411;-71
2023/08/16 20:33:03;;;;;;;4.07;0.80;;;19.10;99.90;;;;;;5027039;28;20443;-71
2023/08/16 20:35:30;;;;;;;2.58;0.70;;;19.10;99.90;;;;;;5023098;28;20415;-71
2023/08/16 20:37:56;;;;;;;4.50;1.00;;;19.00;99.90;;;;;;5027633;28;20461;-71
2023/08/16 20:40:22;;;;;;;5.32;1.02;;;19.00;99.90;;;;;;5010325;28;20415;-72
2023/08/16 20:42:47;;;;;;;4.47;0.77;;;19.00;99.90;;;;;;5029131;28;20430;-71
2023/08/16 20:45:13;;;;;;;4.93;0.75;;;18.90;1.00;;;;;;5029040;28;20438;-71
2023/08/16 20:47:43;;;;;;;2.90;0.70;;;18.90;9.90;;;;;;5027935;28;20506;-71
2023/08/16 20:50:10;;;;;;;4.75;0.98;;;18.80;99.90;;;;;;5020428;28;20498;-71
2023/08/16 20:52:37;;;;;;;3.97;0.75;;;18.70;1.00;;;;;;5028527;28;20411;-71
2023/08/16 20:55:04;;;;;;;4.95;1.08;;;18.70;99.90;;;;;;5028725;28;20817;-71
2023/08/16 20:57:30;;;;;;;6.40;1.00;;;18.70;99.90;;;;;;5027948;28;20506;-70
2023/08/16 20:59:56;;;;;;;4.13;0.80;;;18.60;1.00;;;;;;5031308;28;20456;-71
2023/08/16 21:02:22;;;;;;;4.50;1.02;;;18.60;99.90;;;;;;5012721;28;20427;-71
2023/08/16 21:04:48;;;;;;;5.30;1.00;;;18.60;99.90;;;;;;5007468;28;20435;-70
2023/08/16 21:07:14;;;;;;;6.17;0.80;;;18.60;99.90;;;;;;5028027;28;20419;-71
2023/08/16 21:09:40;;;;;;;3.72;1.10;;;18.60;99.90;;;;;;5030628;28;20418;-72
2023/08/16 21:12:06;;;;;;;5.25;1.10;;;18.60;99.90;;;;;;5035043;28;20925;-71
2023/08/16 21:14:31;;;;;;;4.15;1.08;;;18.50;99.90;;;;;;5029552;28;20406;-71
2023/08/16 21:16:58;;;;;;;3.45;0.70;;;18.60;99.90;;;;;;5029868;28;20499;-71
2023/08/16 21:19:24;;;;;;;3.65;0.70;;;18.50;92.20;;;;;;5036643;28;20445;-70
2023/08/16 21:21:49;;;;;;;6.40;1.08;;;18.50;92.00;;;;;;5039314;28;20434;-70
2023/08/16 21:24:15;;;;;;;3.50;0.70;;;18.50;99.90;;;;;;5021242;28;20440;-69
2023/08/16 21:26:42;;;;;;;5.10;0.80;;;18.50;99.90;;;;;;5033815;28;20473;-71
2023/08/16 21:29:08;;;;;;;4.35;0.95;;;18.50;99.90;;;;;;5022929;28;20420;-71
2023/08/16 21:31:38;;;;;;;5.10;1.10;;;18.40;99.90;;;;;;5046837;28;20420;-71
2023/08/16 21:34:09;;;;;;;5.22;1.00;;;18.40;99.90;;;;;;5048192;28;20508;-71
2023/08/16 21:36:38;;;;;;;4.90;1.20;;;18.40;99.90;;;;;;5022625;28;20405;-71
2023/08/16 21:39:07;;;;;;;6.30;1.08;;;18.30;99.90;;;;;;5046865;28;20409;-71
2023/08/16 21:41:34;;;;;;;4.65;0.98;;;18.30;99.90;;;;;;5047379;28;21065;-71
2023/08/16 21:44:00;;;;;;;4.47;0.95;;;18.20;99.90;;;;;;5046837;28;20440;-71
2023/08/16 21:46:26;;;;;;;4.88;0.80;;;18.20;1.00;;;;;;5047658;28;20404;-71
2023/08/16 21:48:52;;;;;;;4.07;1.15;;;18.20;99.90;;;;;;5029402;28;21128;-71
2023/08/16 21:51:18;;;;;;;5.07;1.00;;;18.10;99.90;;;;;;5039981;28;20407;-71
2023/08/16 21:53:43;;;;;;;5.50;1.13;;;18.10;99.90;;;;;;5042300;28;21060;-71
2023/08/16 21:56:10;;;;;;;5.75;1.00;;;18.20;99.90;;;;;;5047544;28;20413;-71
2023/08/16 21:58:35;;;;;;;3.83;0.90;;;18.20;99.90;;;;;;5046884;28;20405;-71
2023/08/16 22:01:01;;;;;;;5.90;1.20;;;18.30;99.90;;;;;;5047788;28;20488;-72
2023/08/16 22:03:27;;;;;;;5.88;0.90;;;18.20;99.90;;;;;;5032949;28;20951;-72
2023/08/16 22:05:54;;;;;;;4.93;0.83;;;18.20;99.90;;;;;;5028218;28;20434;-72
2023/08/16 22:08:20;;;;;;;5.72;0.80;;;18.20;99.90;;;;;;5028127;28;20407;-72
2023/08/16 22:10:46;;;;;;;4.80;1.00;;;18.20;99.90;;;;;;5028026;28;20965;-72
2023/08/16 22:13:11;;;;;;;6.10;0.90;;;18.10;99.90;;;;;;5041309;28;20409;-72
2023/08/16 22:15:37;;;;;;;5.10;1.20;;;18.10;99.90;;;;;;5040006;28;20471;-71
2023/08/16 22:18:03;;;;;;;4.70;1.03;;;18.10;1.00;;;;;;5041262;28;20413;-72
2023/08/16 22:20:29;;;;;;;6.55;0.90;;;18.10;1.00;;;;;;5028519;28;20827;-72
2023/08/16 22:22:55;;;;;;;3.47;0.83;;;18.10;1.00;;;;;;5042683;28;20433;-72
2023/08/16 22:25:21;;;;;;;6.57;1.05;;;18.10;1.00;;;;;;5046745;28;20416;-73
2023/08/16 22:27:47;;;;;;;5.20;1.10;;;18.10;1.00;;;;;;5046912;28;20424;-72
2023/08/16 22:30:13;;;;;;;3.88;0.80;;;18.10;1.00;;;;;;5029718;28;20417;-72
2023/08/16 22:32:38;;;;;;;4.50;0.68;;;18.10;1.00;;;;;;5046111;28;20967;-72
2023/08/16 22:35:05;;;;;;;4.57;0.90;;;18.00;1.00;;;;;;5027595;28;20405;-73
2023/08/16 22:37:30;;;;;;;5.50;1.00;;;18.00;1.00;;;;;;5041721;28;20417;-72
2023/08/16 22:39:56;;;;;;;4.65;0.90;;;18.00;1.00;;;;;;5047537;28;20417;-70
2023/08/16 22:42:22;;;;;;;10.37;1.43;;;17.90;1.00;;;;;;5046446;28;20481;-71
2023/08/16 22:44:48;;;;;;;4.53;0.73;;;17.90;21.90;;;;;;5046869;28;20417;-71
2023/08/16 22:47:13;;;;;;;4.15;0.80;;;18.00;50.10;;;;;;5045738;28;20410;-71
2023/08/16 22:49:39;;;;;;;3.87;0.73;;;17.90;96.10;;;;;;5040828;28;20406;-71
2023/08/16 22:52:05;;;;;;;8.23;1.15;;;17.90;36.70;;;;;;5014776;28;20414;-72
2023/08/16 22:54:31;;;;;;;4.85;0.93;;;17.80;86.10;;;;;;5050900;28;20417;-72
2023/08/16 22:56:56;;;;;;;4.10;0.70;;;17.80;97.40;;;;;;5049778;28;20401;-72
2023/08/16 22:59:23;;;;;;;3.55;0.73;;;17.90;71.00;;;;;;5039139;28;20412;-72
2023/08/16 23:01:48;;;;;;;2.92;0.70;;;17.80;99.90;;;;;;5049061;28;21106;-72
2023/08/16 23:04:14;;;;;;;4.05;0.80;;;17.80;99.90;;;;;;5031866;28;20471;-72
2023/08/16 23:06:40;;;;;;;3.20;0.60;;;17.80;99.90;;;;;;5032214;28;20407;-72
2023/08/16 23:09:06;;;;;;;3.75;0.70;;;17.80;99.90;;;;;;4996704;28;20426;-72
2023/08/16 23:11:32;;;;;;;3.93;0.93;;;17.80;99.90;;;;;;5032919;28;20407;-72
2023/08/16 23:13:57;;;;;;;4.60;0.80;;;17.80;99.90;;;;;;5031997;28;20418;-72
2023/08/16 23:16:23;;;;;;;6.50;0.80;;;17.80;99.90;;;;;;5016243;28;20415;-72
2023/08/16 23:18:49;;;;;;;4.73;0.90;;;17.80;99.90;;;;;;5032116;28;20839;-72
2023/08/16 23:21:14;;;;;;;5.03;0.90;;;17.80;99.90;;;;;;5033786;28;20964;-72
2023/08/16 23:23:40;;;;;;;7.33;1.47;;;17.80;99.90;;;;;;5033051;28;21007;-72
2023/08/16 23:26:06;;;;;;;5.88;1.20;;;17.80;99.90;;;;;;5033080;28;20489;-72
2023/08/16 23:28:32;;;;;;;3.80;0.90;;;17.80;99.90;;;;;;5037923;28;20455;-72
2023/08/16 23:30:57;;;;;;;4.05;0.88;;;17.80;99.90;;;;;;5049790;28;20401;-73
2023/08/16 23:33:23;;;;;;;3.85;0.80;;;17.80;99.90;;;;;;5050274;28;20410;-72
2023/08/16 23:35:49;;;;;;;5.30;0.70;;;17.80;99.90;;;;;;5031415;28;20984;-72
2023/08/16 23:38:14;;;;;;;3.80;0.80;;;17.80;99.90;;;;;;5043177;28;20406;-72
2023/08/16 23:40:40;;;;;;;6.97;0.95;;;17.90;99.90;;;;;;5032024;28;20482;-72
2023/08/16 23:43:06;;;;;;;4.72;1.00;;;17.80;99.90;;;;;;5031201;28;20481;-72
2023/08/16 23:45:32;;;;;;;3.83;0.80;;;17.80;99.90;;;;;;5031400;28;20480;-72
2023/08/16 23:47:58;;;;;;;4.85;1.10;;;17.80;99.90;;;;;;5012960;28;20759;-72
2023/08/16 23:50:24;;;;;;;4.18;0.88;;;17.80;99.90;;;;;;5031031;28;20450;-71
2023/08/16 23:52:50;;;;;;;3.33;0.60;;;17.80;99.90;;;;;;5031572;28;20411;-71
2023/08/16 23:55:15;;;;;;;3.60;0.87;;;17.80;99.90;;;;;;5032312;28;20408;-72
2023/08/16 23:57:41;;;;;;;4.55;0.80;;;17.80;99.90;;;;;;5031908;28;20464;-72
